createdAt,value
2023-04-06T00:00:03.381Z,2.10
2023-04-06T00:02:31.593Z,2.00
2023-04-06T00:04:59.764Z,2.20
2023-04-06T00:07:30.745Z,2.40
2023-04-06T00:09:58.808Z,2.30
2023-04-06T00:12:26.884Z,2.30
2023-04-06T00:14:54.987Z,2.07
2023-04-06T00:17:23.219Z,2.13
2023-04-06T00:19:51.428Z,2.37
2023-04-06T00:22:19.498Z,2.27
2023-04-06T00:24:49.040Z,2.30
2023-04-06T00:27:17.208Z,2.27
2023-04-06T00:29:46.206Z,2.17
2023-04-06T00:32:14.272Z,2.33
2023-04-06T00:34:42.439Z,2.30
2023-04-06T00:37:10.779Z,2.50
2023-04-06T00:39:38.894Z,2.33
2023-04-06T00:42:13.586Z,2.90
2023-04-06T00:44:41.875Z,2.63
2023-04-06T00:47:10.117Z,2.93
2023-04-06T00:49:38.231Z,2.87
2023-04-06T00:52:06.378Z,2.63
2023-04-06T00:54:34.606Z,2.27
2023-04-06T00:57:02.819Z,2.30
2023-04-06T00:59:32.680Z,2.63
2023-04-06T01:02:01.059Z,2.30
2023-04-06T01:04:29.388Z,2.57
2023-04-06T01:06:57.563Z,2.40
2023-04-06T01:09:25.840Z,2.37
2023-04-06T01:11:54.022Z,2.40
2023-04-06T01:14:22.266Z,2.20
2023-04-06T01:16:51.875Z,2.43
2023-04-06T01:19:20.039Z,2.30
2023-04-06T01:21:48.296Z,2.23
2023-04-06T01:24:17.905Z,2.40
2023-04-06T01:26:46.751Z,2.23
2023-04-06T01:29:14.924Z,2.30
2023-04-06T01:31:43.007Z,2.50
2023-04-06T01:34:11.300Z,2.60
2023-04-06T01:36:39.529Z,2.93
2023-04-06T01:39:07.983Z,2.60
2023-04-06T01:41:37.659Z,2.70
2023-04-06T01:44:06.040Z,2.50
2023-04-06T01:46:34.215Z,2.70
2023-04-06T01:49:02.349Z,2.67
2023-04-06T01:51:31.995Z,2.70
2023-04-06T01:54:00.162Z,2.50
2023-04-06T01:56:28.310Z,2.40
2023-04-06T01:58:57.889Z,2.80
2023-04-06T02:01:26.223Z,2.20
2023-04-06T02:03:54.347Z,2.50
2023-04-06T02:06:22.625Z,2.47
2023-04-06T02:08:50.390Z,2.40
2023-04-06T02:11:18.197Z,2.80
2023-04-06T02:13:45.998Z,2.30
2023-04-06T02:16:15.861Z,2.70
2023-04-06T02:18:43.731Z,2.67
2023-04-06T02:21:11.628Z,2.47
2023-04-06T02:23:39.456Z,2.53
2023-04-06T02:26:07.354Z,2.40
2023-04-06T02:28:35.453Z,2.73
2023-04-06T02:31:03.273Z,2.73
2023-04-06T02:33:32.412Z,2.67
2023-04-06T02:36:00.403Z,2.73
2023-04-06T02:38:28.160Z,2.97
2023-04-06T02:40:56.176Z,2.97
2023-04-06T02:43:24.180Z,2.53
2023-04-06T02:45:52.019Z,2.70
2023-04-06T02:48:19.943Z,2.60
2023-04-06T02:50:49.173Z,3.00
2023-04-06T02:53:17.034Z,2.90
2023-04-06T02:55:44.803Z,2.90
2023-04-06T02:58:12.685Z,2.80
2023-04-06T03:00:40.623Z,3.17
2023-04-06T03:03:08.728Z,2.57
2023-04-06T03:05:36.725Z,3.23
2023-04-06T03:08:06.429Z,2.83
2023-04-06T03:10:34.251Z,2.60
2023-04-06T03:13:02.067Z,2.80
2023-04-06T03:15:29.892Z,2.93
2023-04-06T03:18:00.118Z,2.80
2023-04-06T03:20:28.331Z,2.77
2023-04-06T03:22:56.342Z,3.10
2023-04-06T03:25:25.518Z,3.10
2023-04-06T03:27:53.342Z,3.00
2023-04-06T03:30:21.459Z,2.90
2023-04-06T03:32:49.373Z,3.00
2023-04-06T03:35:17.373Z,3.27
2023-04-06T03:37:45.461Z,3.43
2023-04-06T03:40:13.581Z,3.60
2023-04-06T03:42:42.764Z,3.47
2023-04-06T03:45:14.271Z,3.50
2023-04-06T03:47:42.244Z,3.63
2023-04-06T03:50:11.206Z,3.10
2023-04-06T03:52:39.096Z,3.70
2023-04-06T03:55:08.317Z,3.70
2023-04-06T03:57:36.165Z,4.00
2023-04-06T04:00:06.167Z,3.43
2023-04-06T04:02:34.303Z,3.53
2023-04-06T04:05:02.303Z,3.50
2023-04-06T04:07:30.191Z,3.60
2023-04-06T04:09:58.075Z,3.37
2023-04-06T04:12:26.006Z,3.83
2023-04-06T04:14:53.785Z,3.30
2023-04-06T04:17:23.747Z,3.77
2023-04-06T04:19:51.582Z,3.70
2023-04-06T04:22:19.493Z,3.33
2023-04-06T04:24:47.338Z,3.50
2023-04-06T04:27:15.211Z,3.63
2023-04-06T04:29:45.701Z,3.77
2023-04-06T04:32:13.573Z,3.40
2023-04-06T04:34:43.169Z,3.90
2023-04-06T04:37:11.074Z,3.80
2023-04-06T04:39:39.003Z,3.40
2023-04-06T04:42:09.244Z,3.90
2023-04-06T04:44:37.154Z,3.50
2023-04-06T04:47:05.067Z,3.20
2023-04-06T04:49:32.913Z,3.67
2023-04-06T04:52:02.069Z,3.90
2023-04-06T04:54:29.908Z,3.17
2023-04-06T04:56:57.806Z,3.60
2023-04-06T04:59:25.780Z,3.73
2023-04-06T05:01:55.640Z,3.93
2023-04-06T05:04:29.488Z,3.63
2023-04-06T05:07:06.234Z,3.53
2023-04-06T05:09:34.238Z,3.60
2023-04-06T05:12:02.327Z,3.80
2023-04-06T05:14:30.692Z,3.13
2023-04-06T05:16:58.525Z,3.20
2023-04-06T05:19:26.522Z,3.40
2023-04-06T05:21:54.528Z,3.50
2023-04-06T05:24:23.765Z,3.10
2023-04-06T05:26:51.681Z,3.13
2023-04-06T05:29:21.108Z,3.40
2023-04-06T05:31:49.612Z,2.87
2023-04-06T05:34:17.494Z,3.33
2023-04-06T05:36:46.735Z,3.20
2023-04-06T05:39:15.015Z,3.13
2023-04-06T05:41:44.854Z,3.67
2023-04-06T05:44:13.006Z,3.50
2023-04-06T05:46:41.029Z,3.03
2023-04-06T05:49:09.139Z,3.50
2023-04-06T05:51:37.151Z,3.60
2023-04-06T05:54:05.061Z,3.90
2023-04-06T05:56:32.887Z,3.50
2023-04-06T05:59:02.239Z,3.70
2023-04-06T06:01:30.116Z,3.27
2023-04-06T06:03:58.006Z,3.60
2023-04-06T06:06:26.113Z,3.83
2023-04-06T06:08:57.167Z,3.77
2023-04-06T06:11:25.234Z,3.83
2023-04-06T06:13:53.093Z,4.13
2023-04-06T06:16:24.931Z,4.43
2023-04-06T06:18:52.850Z,3.90
2023-04-06T06:21:20.749Z,4.10
2023-04-06T06:23:50.213Z,4.30
2023-04-06T06:26:18.550Z,3.80
2023-04-06T06:28:46.591Z,3.83
2023-04-06T06:31:14.570Z,4.00
2023-04-06T06:33:44.137Z,4.20
2023-04-06T06:36:12.020Z,3.93
2023-04-06T06:38:40.362Z,4.13
2023-04-06T06:41:08.246Z,4.27
2023-04-06T06:43:36.088Z,4.17
2023-04-06T06:46:04.086Z,3.87
2023-04-06T06:48:31.999Z,3.63
2023-04-06T06:51:02.328Z,3.70
2023-04-06T06:53:30.462Z,3.83
2023-04-06T06:55:58.296Z,3.73
2023-04-06T06:58:26.245Z,3.40
2023-04-06T07:00:58.172Z,3.50
2023-04-06T07:03:26.098Z,3.50
2023-04-06T07:05:55.031Z,3.53
2023-04-06T07:08:24.938Z,3.60
2023-04-06T07:10:53.941Z,3.60
2023-04-06T07:13:23.643Z,3.20
2023-04-06T07:15:51.869Z,3.70
2023-04-06T07:18:19.926Z,3.30
2023-04-06T07:20:48.038Z,2.97
2023-04-06T07:23:16.013Z,3.03
2023-04-06T07:25:45.709Z,2.97
2023-04-06T07:28:14.143Z,3.20
2023-04-06T07:30:42.473Z,3.90
2023-04-06T07:33:10.458Z,3.17
2023-04-06T07:35:38.764Z,3.23
2023-04-06T07:38:06.865Z,3.10
2023-04-06T07:40:35.336Z,3.17
2023-04-06T07:43:04.522Z,3.30
2023-04-06T07:45:32.928Z,3.70
2023-04-06T07:48:00.883Z,3.37
2023-04-06T07:50:28.926Z,3.60
2023-04-06T07:52:56.715Z,2.87
2023-04-06T07:55:24.633Z,3.30
2023-04-06T07:57:52.642Z,3.43
2023-04-06T08:00:24.283Z,3.70
2023-04-06T08:02:52.218Z,3.57
2023-04-06T08:05:20.249Z,3.40
2023-04-06T08:07:48.092Z,3.10
2023-04-06T08:10:17.055Z,3.37
2023-04-06T08:12:44.899Z,3.67
2023-04-06T08:15:12.842Z,3.13
2023-04-06T08:17:43.290Z,3.30
2023-04-06T08:20:12.099Z,2.90
2023-04-06T08:22:39.977Z,3.40
2023-04-06T08:25:09.068Z,3.37
2023-04-06T08:27:37.068Z,3.37
2023-04-06T08:30:05.338Z,3.53
2023-04-06T08:32:33.290Z,3.90
2023-04-06T08:35:04.575Z,3.43
2023-04-06T08:37:33.246Z,3.20
2023-04-06T08:40:01.118Z,2.97
2023-04-06T08:42:31.107Z,3.80
2023-04-06T08:44:58.916Z,3.67
2023-04-06T08:47:26.869Z,4.00
2023-04-06T08:49:55.710Z,3.63
2023-04-06T08:52:25.102Z,3.60
2023-04-06T08:54:52.958Z,3.60
2023-04-06T08:57:21.476Z,3.60
2023-04-06T08:59:49.590Z,3.70
2023-04-06T09:02:20.045Z,4.30
2023-04-06T09:04:50.592Z,4.00
2023-04-06T09:07:18.602Z,3.63
2023-04-06T09:09:49.778Z,3.63
2023-04-06T09:12:27.833Z,3.83
2023-04-06T09:14:56.954Z,3.63
2023-04-06T09:17:26.178Z,3.40
2023-04-06T09:19:54.861Z,3.53
2023-04-06T09:22:23.107Z,3.70
2023-04-06T09:24:53.341Z,4.33
2023-04-06T09:27:32.288Z,4.00
2023-04-06T09:30:06.396Z,3.90
2023-04-06T09:32:34.359Z,3.70
2023-04-06T09:35:09.184Z,3.20
2023-04-06T09:37:37.084Z,3.80
2023-04-06T09:40:08.095Z,3.97
2023-04-06T09:42:36.496Z,4.10
2023-04-06T09:45:04.615Z,3.60
2023-04-06T09:47:33.860Z,4.53
2023-04-06T09:50:02.701Z,4.13
2023-04-06T09:52:34.522Z,3.83
2023-04-06T09:55:06.541Z,3.93
2023-04-06T09:57:37.636Z,4.10
2023-04-06T10:00:10.645Z,3.90
2023-04-06T10:02:43.700Z,3.63
2023-04-06T10:05:14.106Z,3.93
2023-04-06T10:07:53.077Z,4.10
2023-04-06T10:10:29.431Z,3.70
2023-04-06T10:13:00.957Z,4.03
2023-04-06T10:15:29.874Z,4.57
2023-04-06T10:17:58.283Z,4.07
2023-04-06T10:20:30.030Z,4.30
2023-04-06T10:23:01.936Z,3.97
2023-04-06T10:25:31.501Z,4.37
2023-04-06T10:28:02.913Z,4.20
2023-04-06T10:30:31.075Z,4.23
2023-04-06T10:32:59.554Z,4.53
2023-04-06T10:35:38.941Z,4.10
2023-04-06T10:38:07.316Z,4.23
2023-04-06T10:40:38.397Z,4.53
2023-04-06T10:43:10.818Z,3.97
2023-04-06T10:45:38.916Z,4.20
2023-04-06T10:48:16.986Z,3.77
2023-04-06T10:50:46.052Z,4.10
2023-04-06T10:53:13.890Z,4.03
2023-04-06T10:55:44.685Z,4.00
2023-04-06T10:58:12.527Z,4.67
2023-04-06T11:00:50.847Z,4.13
2023-04-06T11:03:19.561Z,4.70
2023-04-06T11:05:48.410Z,4.67
2023-04-06T11:08:27.092Z,4.37
2023-04-06T11:11:06.341Z,4.60
2023-04-06T11:13:40.126Z,4.40
2023-04-06T11:16:08.277Z,4.60
2023-04-06T11:18:36.575Z,4.50
2023-04-06T11:21:05.027Z,4.40
2023-04-06T11:23:32.847Z,4.43
2023-04-06T11:26:02.059Z,4.33
2023-04-06T11:28:30.014Z,4.57
2023-04-06T11:30:58.868Z,4.67
2023-04-06T11:33:27.869Z,4.63
2023-04-06T11:35:59.610Z,4.67
2023-04-06T11:38:27.458Z,4.37
2023-04-06T11:40:55.768Z,4.83
2023-04-06T11:43:29.864Z,4.80
2023-04-06T11:46:08.546Z,4.90
2023-04-06T11:48:46.420Z,4.87
2023-04-06T11:51:14.361Z,4.60
2023-04-06T11:53:46.458Z,5.07
2023-04-06T11:56:25.476Z,5.33
2023-04-06T11:58:55.503Z,5.20
2023-04-06T12:01:23.552Z,4.90
2023-04-06T12:03:52.045Z,5.60
2023-04-06T12:06:20.749Z,5.03
2023-04-06T12:08:48.555Z,4.93
2023-04-06T12:11:16.636Z,4.70
2023-04-06T12:13:44.575Z,4.77
2023-04-06T12:16:13.846Z,4.87
2023-04-06T12:18:41.788Z,4.63
2023-04-06T12:21:09.661Z,4.80
2023-04-06T12:23:37.524Z,4.70
2023-04-06T12:26:05.931Z,4.53
2023-04-06T12:28:41.211Z,5.17
2023-04-06T12:31:10.047Z,5.20
2023-04-06T12:33:39.308Z,4.57
2023-04-06T12:36:13.906Z,4.70
2023-04-06T12:38:42.263Z,5.30
2023-04-06T12:41:10.103Z,4.97
2023-04-06T12:43:37.957Z,5.33
2023-04-06T12:46:06.915Z,5.90
2023-04-06T12:48:34.899Z,5.67
2023-04-06T12:51:05.630Z,5.80
2023-04-06T12:53:33.973Z,5.30
2023-04-06T12:56:02.666Z,5.70
2023-04-06T12:58:30.658Z,5.40
2023-04-06T13:01:03.845Z,4.90
2023-04-06T13:03:31.831Z,4.93
2023-04-06T13:06:01.602Z,4.90
2023-04-06T13:08:30.937Z,4.80
2023-04-06T13:10:58.722Z,4.47
2023-04-06T13:13:27.714Z,5.23
2023-04-06T13:15:56.376Z,4.83
2023-04-06T13:18:25.522Z,5.10
2023-04-06T13:20:53.443Z,5.20
2023-04-06T13:23:21.478Z,5.43
2023-04-06T13:25:50.892Z,5.40
2023-04-06T13:28:19.082Z,5.53
2023-04-06T13:30:50.853Z,5.10
2023-04-06T13:33:18.651Z,5.23
2023-04-06T13:35:47.201Z,5.17
2023-04-06T13:38:15.480Z,5.43
2023-04-06T13:40:44.290Z,5.10
2023-04-06T13:43:13.625Z,5.00
2023-04-06T13:45:41.559Z,5.03
2023-04-06T13:48:09.445Z,5.30
2023-04-06T13:50:37.573Z,5.10
2023-04-06T13:53:05.437Z,5.00
2023-04-06T13:55:33.186Z,5.10
2023-04-06T13:58:01.055Z,5.27
2023-04-06T14:00:30.222Z,5.33
2023-04-06T14:02:58.144Z,5.20
2023-04-06T14:05:27.501Z,5.80
2023-04-06T14:07:55.690Z,5.00
2023-04-06T14:10:24.828Z,5.40
2023-04-06T14:12:53.580Z,5.27
2023-04-06T14:15:22.887Z,5.10
2023-04-06T14:17:52.901Z,5.20
2023-04-06T14:20:21.283Z,4.23
2023-04-06T14:22:50.454Z,4.53
2023-04-06T14:25:18.197Z,4.80
2023-04-06T14:27:46.034Z,4.93
2023-04-06T14:30:15.272Z,5.20
2023-04-06T14:32:43.644Z,4.67
2023-04-06T14:35:12.947Z,4.63
2023-04-06T14:37:40.931Z,5.00
2023-04-06T14:40:10.108Z,4.70
2023-04-06T14:42:38.347Z,4.60
2023-04-06T14:45:07.023Z,4.27
2023-04-06T14:47:34.846Z,4.70
2023-04-06T14:50:02.724Z,4.93
2023-04-06T14:52:32.774Z,4.30
2023-04-06T14:55:00.793Z,4.77
2023-04-06T14:57:28.644Z,4.93
2023-04-06T14:59:56.737Z,5.93
2023-04-06T15:02:24.672Z,5.50
2023-04-06T15:04:53.964Z,5.73
2023-04-06T15:07:22.951Z,5.80
2023-04-06T15:09:52.094Z,5.80
2023-04-06T15:12:19.975Z,5.27
2023-04-06T15:14:47.971Z,5.17
2023-04-06T15:17:15.716Z,5.20
2023-04-06T15:19:43.536Z,5.90
2023-04-06T15:22:12.373Z,5.80
2023-04-06T15:24:40.269Z,5.43
2023-04-06T15:27:09.448Z,5.90
2023-04-06T15:29:39.606Z,5.40
2023-04-06T15:32:07.655Z,5.27
2023-04-06T15:34:35.677Z,5.00
2023-04-06T15:37:04.927Z,5.13
2023-04-06T15:39:32.865Z,5.50
2023-04-06T15:42:01.086Z,5.40
2023-04-06T15:44:30.334Z,5.33
2023-04-06T15:46:58.105Z,4.93
2023-04-06T15:49:26.149Z,5.00
2023-04-06T15:51:53.980Z,4.93
2023-04-06T15:54:21.931Z,4.27
2023-04-06T15:56:50.561Z,4.93
2023-04-06T15:59:18.441Z,5.20
2023-04-06T16:01:48.537Z,4.90
2023-04-06T16:04:16.627Z,4.97
2023-04-06T16:06:44.402Z,4.67
2023-04-06T16:09:12.230Z,5.53
2023-04-06T16:11:40.053Z,5.10
2023-04-06T16:14:07.809Z,4.90
2023-04-06T16:16:35.588Z,4.87
2023-04-06T16:19:04.805Z,4.67
2023-04-06T16:21:32.497Z,4.87
2023-04-06T16:24:00.735Z,5.47
2023-04-06T16:26:28.706Z,5.13
2023-04-06T16:28:57.250Z,5.13
2023-04-06T16:31:26.042Z,5.50
2023-04-06T16:33:56.171Z,5.47
2023-04-06T16:36:26.785Z,4.80
2023-04-06T16:38:54.611Z,5.03
2023-04-06T16:41:22.609Z,5.80
2023-04-06T16:43:50.512Z,5.50
2023-04-06T16:46:18.417Z,6.33
2023-04-06T16:48:46.304Z,7.70
2023-04-06T16:51:14.054Z,7.47
2023-04-06T16:53:43.356Z,7.80
2023-04-06T16:56:11.329Z,8.20
2023-04-06T16:58:39.609Z,7.70
2023-04-06T17:01:07.403Z,7.57
2023-04-06T17:03:35.588Z,6.97
2023-04-06T17:06:03.469Z,6.63
2023-04-06T17:08:31.320Z,6.33
2023-04-06T17:11:04.140Z,7.00
2023-04-06T17:13:32.720Z,6.67
2023-04-06T17:16:00.856Z,6.37
2023-04-06T17:18:30.086Z,6.17
2023-04-06T17:20:58.197Z,6.27
2023-04-06T17:23:26.722Z,6.80
2023-04-06T17:25:56.996Z,6.67
2023-04-06T17:28:26.911Z,6.63
2023-04-06T17:30:54.650Z,6.70
2023-04-06T17:33:23.661Z,6.07
2023-04-06T17:35:51.540Z,6.70
2023-04-06T17:38:19.648Z,6.63
2023-04-06T17:40:47.427Z,6.43
2023-04-06T17:43:16.092Z,6.07
2023-04-06T17:45:45.424Z,6.00
2023-04-06T17:48:13.568Z,6.30
2023-04-06T17:50:42.590Z,5.70
2023-04-06T17:53:10.475Z,5.23
2023-04-06T17:55:38.349Z,5.13
2023-04-06T17:58:06.470Z,5.10
2023-04-06T18:00:34.591Z,4.97
2023-04-06T18:03:04.103Z,5.20
2023-04-06T18:05:31.938Z,4.87
2023-04-06T18:07:59.692Z,4.83
2023-04-06T18:10:27.538Z,4.57
2023-04-06T18:12:55.680Z,4.33
2023-04-06T18:15:23.552Z,4.80
2023-04-06T18:17:52.036Z,4.60
2023-04-06T18:20:21.605Z,4.27
2023-04-06T18:25:18.710Z,4.83
2023-04-06T18:27:46.593Z,4.63
2023-04-06T18:30:17.589Z,4.80
2023-04-06T18:32:45.505Z,4.90
2023-04-06T18:35:14.369Z,4.60
2023-04-06T18:37:43.610Z,4.47
2023-04-06T18:40:31.495Z,5.07
2023-04-06T18:42:59.350Z,4.97
2023-04-06T18:45:27.323Z,5.10
2023-04-06T18:47:57.353Z,5.20
2023-04-06T18:50:25.234Z,4.87
2023-04-06T18:52:54.935Z,5.27
2023-04-06T18:55:22.877Z,5.37
2023-04-06T18:57:50.634Z,4.83
2023-04-06T19:00:18.848Z,5.87
2023-04-06T19:02:47.061Z,5.60
2023-04-06T19:05:15.277Z,5.90
2023-04-06T19:07:43.201Z,6.13
2023-04-06T19:10:13.845Z,7.00
2023-04-06T19:12:41.706Z,7.23
2023-04-06T19:15:11.010Z,6.90
2023-04-06T19:17:39.319Z,6.70
2023-04-06T19:20:08.776Z,6.33
2023-04-06T19:22:37.071Z,5.90
2023-04-06T19:25:05.390Z,5.60
2023-04-06T19:27:34.661Z,5.10
2023-04-06T19:30:02.504Z,5.13
2023-04-06T19:32:31.196Z,5.27
2023-04-06T19:34:59.794Z,4.93
2023-04-06T19:37:27.678Z,4.73
2023-04-06T19:39:55.485Z,5.13
2023-04-06T19:42:24.095Z,5.33
2023-04-06T19:44:53.425Z,5.37
2023-04-06T19:47:21.322Z,5.53
2023-04-06T19:49:49.225Z,4.70
2023-04-06T19:52:16.994Z,5.27
2023-04-06T19:54:46.936Z,4.80
2023-04-06T19:57:16.537Z,5.20
2023-04-06T19:59:44.365Z,5.03
2023-04-06T20:02:13.685Z,4.97
2023-04-06T20:04:42.457Z,4.97
2023-04-06T20:07:10.324Z,5.17
2023-04-06T20:09:38.186Z,4.80
2023-04-06T20:12:06.139Z,4.67
2023-04-06T20:14:34.329Z,4.83
2023-04-06T20:17:07.625Z,4.50
2023-04-06T20:19:39.020Z,5.10
2023-04-06T20:22:06.736Z,5.03
2023-04-06T20:24:34.635Z,5.40
2023-04-06T20:27:03.115Z,4.90
2023-04-06T20:29:30.909Z,5.20
2023-04-06T20:31:59.456Z,5.60
2023-04-06T20:34:28.936Z,5.63
2023-04-06T20:36:58.269Z,6.00
2023-04-06T20:39:27.370Z,5.50
2023-04-06T20:41:55.132Z,5.50
2023-04-06T20:44:25.014Z,6.67
2023-04-06T20:46:53.229Z,6.80
2023-04-06T20:49:23.552Z,8.97
2023-04-06T20:51:51.414Z,10.60
2023-04-06T20:54:20.710Z,9.33
2023-04-06T20:56:48.805Z,8.43
2023-04-06T20:59:16.689Z,8.57
2023-04-06T21:01:45.066Z,7.63
2023-04-06T21:04:12.907Z,7.57
2023-04-06T21:06:40.806Z,7.90
2023-04-06T21:09:08.643Z,7.50
2023-04-06T21:11:37.842Z,7.57
2023-04-06T21:14:06.442Z,8.10
2023-04-06T21:16:34.592Z,7.83
2023-04-06T21:19:02.425Z,8.03
2023-04-06T21:21:30.330Z,7.83
2023-04-06T21:23:58.374Z,8.50
2023-04-06T21:26:26.146Z,8.30
2023-04-06T21:28:55.407Z,8.20
2023-04-06T21:31:23.160Z,8.07
2023-04-06T21:33:50.888Z,8.83
2023-04-06T21:36:18.764Z,9.00
2023-04-06T21:38:46.591Z,8.57
2023-04-06T21:41:14.495Z,7.50
2023-04-06T21:43:42.259Z,8.73
2023-04-06T21:46:11.745Z,8.00
2023-04-06T21:48:39.615Z,7.87
2023-04-06T21:51:07.423Z,7.93
2023-04-06T21:53:35.248Z,7.97
2023-04-06T21:56:03.164Z,8.23
2023-04-06T21:58:30.981Z,8.47
2023-04-06T22:00:58.746Z,7.57
2023-04-06T22:03:28.214Z,8.50
2023-04-06T22:05:56.242Z,7.80
2023-04-06T22:08:33.195Z,8.60
2023-04-06T22:11:02.026Z,8.00
2023-04-06T22:13:31.727Z,7.80
2023-04-06T22:15:59.572Z,7.40
2023-04-06T22:18:28.883Z,8.10
2023-04-06T22:20:56.904Z,7.63
2023-04-06T22:23:24.697Z,7.40
2023-04-06T22:25:52.445Z,7.83
2023-04-06T22:28:20.192Z,7.77
2023-04-06T22:30:48.011Z,8.57
2023-04-06T22:33:15.890Z,7.53
2023-04-06T22:35:45.025Z,7.90
2023-04-06T22:38:12.853Z,7.23
2023-04-06T22:40:40.656Z,8.00
2023-04-06T22:43:08.378Z,8.50
2023-04-06T22:45:36.161Z,7.60
2023-04-06T22:48:04.056Z,7.87
2023-04-06T22:50:32.107Z,7.40
2023-04-06T22:53:01.492Z,7.53
2023-04-06T22:55:29.574Z,8.23
2023-04-06T22:57:59.602Z,8.50
2023-04-06T23:00:27.561Z,7.43
2023-04-06T23:02:55.813Z,7.50
2023-04-06T23:05:23.973Z,7.50
2023-04-06T23:07:52.513Z,6.97
2023-04-06T23:10:21.791Z,7.40
2023-04-06T23:12:49.746Z,8.37
2023-04-06T23:15:17.477Z,7.83
2023-04-06T23:17:45.233Z,7.77
2023-04-06T23:20:13.108Z,8.23
2023-04-06T23:22:41.022Z,8.30
2023-04-06T23:25:10.002Z,8.33
2023-04-06T23:27:39.118Z,7.97
2023-04-06T23:30:08.366Z,8.13
2023-04-06T23:32:36.419Z,8.47
2023-04-06T23:35:04.787Z,8.90
2023-04-06T23:37:32.632Z,8.83
2023-04-06T23:40:01.886Z,8.83
2023-04-06T23:42:29.707Z,8.33
2023-04-06T23:44:58.806Z,8.80
2023-04-06T23:47:26.635Z,8.83
2023-04-06T23:49:54.429Z,8.17
2023-04-06T23:52:22.231Z,8.97
2023-04-06T23:54:49.960Z,7.97
2023-04-06T23:57:17.822Z,8.50
2023-04-06T23:59:45.617Z,8.90
